createdAt,value
2018-04-02T00:02:09.593Z,93.60
2018-04-02T00:04:37.635Z,93.20
2018-04-02T00:07:06.450Z,93.10
2018-04-02T00:09:35.256Z,92.70
2018-04-02T00:12:04.082Z,92.80
2018-04-02T00:14:33.126Z,92.70
2018-04-02T00:17:01.921Z,92.30
2018-04-02T00:19:29.955Z,91.90
2018-04-02T00:21:57.996Z,92.30
2018-04-02T00:24:26.800Z,92.30
2018-04-02T00:26:54.857Z,92.30
2018-04-02T00:29:22.903Z,92.40
2018-04-02T00:31:51.699Z,92.60
2018-04-02T00:34:19.749Z,92.50
2018-04-02T00:36:47.797Z,92.70
2018-04-02T00:39:15.839Z,92.30
2018-04-02T00:41:43.892Z,92.30
2018-04-02T00:44:12.017Z,91.70
2018-04-02T00:46:40.069Z,92.30
2018-04-02T00:49:08.112Z,91.80
2018-04-02T00:51:36.152Z,91.70
2018-04-02T00:54:04.204Z,92.30
2018-04-02T00:56:32.244Z,92.40
2018-04-02T00:59:00.310Z,91.80
2018-04-02T01:01:28.348Z,92.00
2018-04-02T01:03:56.393Z,92.00
2018-04-02T01:06:24.445Z,92.80
2018-04-02T01:08:52.488Z,92.00
2018-04-02T01:11:20.525Z,91.50
2018-04-02T01:13:48.576Z,91.60
2018-04-02T01:16:16.634Z,91.60
2018-04-02T01:18:44.781Z,91.70
2018-04-02T01:21:12.905Z,91.10
2018-04-02T01:23:40.973Z,91.30
2018-04-02T01:26:09.008Z,91.50
2018-04-02T01:28:37.069Z,92.00
2018-04-02T01:31:05.108Z,91.60
2018-04-02T01:33:33.149Z,91.90
2018-04-02T01:36:01.204Z,91.80
2018-04-02T01:38:29.260Z,92.20
2018-04-02T01:40:57.380Z,92.00
2018-04-02T01:43:25.400Z,92.20
2018-04-02T01:45:53.445Z,92.10
2018-04-02T01:48:21.676Z,91.60
2018-04-02T01:50:49.720Z,91.60
2018-04-02T01:53:18.529Z,92.00
2018-04-02T01:55:47.355Z,91.90
2018-04-02T01:58:16.188Z,92.50
2018-04-02T02:00:44.277Z,92.20
2018-04-02T02:03:12.320Z,92.20
2018-04-02T02:05:40.466Z,92.20
2018-04-02T02:08:09.268Z,92.70
2018-04-02T02:10:38.097Z,92.70
2018-04-02T02:13:06.898Z,92.50
2018-04-02T02:15:35.713Z,92.80
2018-04-02T02:18:04.516Z,93.00
2018-04-02T02:20:33.340Z,92.60
2018-04-02T02:23:02.148Z,93.00
2018-04-02T02:25:30.969Z,92.90
2018-04-02T02:27:59.781Z,93.00
2018-04-02T02:30:28.591Z,92.90
2018-04-02T02:32:56.648Z,92.90
2018-04-02T02:35:24.689Z,93.00
2018-04-02T02:37:52.726Z,93.10
2018-04-02T02:40:20.776Z,93.10
2018-04-02T02:42:48.825Z,93.00
2018-04-02T02:45:16.872Z,93.00
2018-04-02T02:47:45.917Z,93.00
2018-04-02T02:50:14.009Z,92.90
2018-04-02T02:52:42.049Z,93.10
2018-04-02T02:55:10.202Z,93.20
2018-04-02T02:57:39.005Z,93.50
2018-04-02T03:00:07.829Z,93.60
2018-04-02T03:02:36.746Z,93.70
2018-04-02T03:05:05.550Z,93.90
2018-04-02T03:07:34.379Z,94.20
2018-04-02T03:10:02.422Z,94.20
2018-04-02T03:12:30.476Z,94.30
2018-04-02T03:14:58.517Z,94.80
2018-04-02T03:17:26.567Z,95.00
2018-04-02T03:19:55.386Z,95.50
2018-04-02T03:22:23.434Z,95.10
2018-04-02T03:24:51.481Z,95.30
2018-04-02T03:27:19.520Z,95.50
2018-04-02T03:29:47.629Z,95.60
2018-04-02T03:32:15.664Z,95.70
2018-04-02T03:34:43.701Z,95.60
2018-04-02T03:37:11.757Z,95.60
2018-04-02T03:39:39.801Z,95.70
2018-04-02T03:42:07.852Z,95.80
2018-04-02T03:44:35.898Z,95.80
2018-04-02T03:47:03.952Z,95.90
2018-04-02T03:49:32.003Z,95.90
2018-04-02T03:52:00.057Z,96.10
2018-04-02T03:54:28.093Z,95.50
2018-04-02T03:56:56.144Z,95.70
2018-04-02T03:59:24.192Z,95.60
2018-04-02T04:01:53.021Z,95.40
2018-04-02T04:04:21.149Z,95.40
2018-04-02T04:06:49.205Z,95.60
2018-04-02T04:09:17.249Z,95.90
2018-04-02T04:11:45.301Z,96.50
2018-04-02T04:14:13.334Z,96.90
2018-04-02T04:16:41.384Z,96.60
2018-04-02T04:19:09.424Z,96.90
2018-04-02T04:21:37.481Z,97.00
2018-04-02T04:24:05.536Z,97.10
2018-04-02T04:26:33.592Z,97.10
2018-04-02T04:29:02.418Z,96.80
2018-04-02T04:31:31.240Z,96.70
2018-04-02T04:33:59.280Z,96.70
2018-04-02T04:36:27.332Z,96.70
2018-04-02T04:38:55.397Z,96.80
2018-04-02T04:41:23.446Z,96.80
2018-04-02T04:43:51.486Z,96.70
2018-04-02T04:46:19.530Z,96.60
2018-04-02T04:48:47.578Z,96.70
2018-04-02T04:51:15.632Z,96.80
2018-04-02T04:53:43.688Z,96.70
2018-04-02T04:56:12.505Z,96.60
2018-04-02T04:58:41.312Z,96.70
2018-04-02T05:01:10.132Z,96.90
2018-04-02T05:03:38.947Z,96.70
2018-04-02T05:06:07.753Z,96.90
2018-04-02T05:08:35.807Z,96.90
2018-04-02T05:11:03.852Z,97.20
2018-04-02T05:13:32.674Z,98.00
2018-04-02T05:16:01.493Z,97.90
2018-04-02T05:18:30.297Z,98.10
2018-04-02T05:20:59.120Z,98.40
2018-04-02T05:23:27.926Z,97.90
2018-04-02T05:25:56.748Z,97.90
2018-04-02T05:28:25.683Z,97.40
2018-04-02T05:30:53.807Z,97.40
2018-04-02T05:33:22.564Z,97.30
2018-04-02T05:35:51.453Z,97.90
2018-04-02T05:38:19.497Z,97.50
2018-04-02T05:40:48.316Z,97.70
2018-04-02T05:43:16.373Z,97.70
2018-04-02T05:45:44.510Z,97.80
2018-04-02T05:48:12.565Z,97.70
2018-04-02T05:50:40.619Z,97.80
2018-04-02T05:53:08.688Z,97.80
2018-04-02T05:55:37.510Z,98.20
2018-04-02T05:58:05.568Z,97.90
2018-04-02T06:00:33.640Z,98.00
2018-04-02T06:03:01.685Z,97.90
2018-04-02T06:05:30.509Z,98.10
2018-04-02T06:07:59.337Z,98.20
2018-04-02T06:10:27.392Z,98.20
2018-04-02T06:12:55.529Z,98.20
2018-04-02T06:15:24.343Z,98.10
2018-04-02T06:17:52.385Z,98.10
2018-04-02T06:20:20.438Z,98.10
2018-04-02T06:22:48.501Z,98.00
2018-04-02T06:25:16.556Z,98.10
2018-04-02T06:27:44.599Z,97.90
2018-04-02T06:30:13.425Z,97.90
2018-04-02T06:32:42.236Z,97.70
2018-04-02T06:35:11.062Z,97.30
2018-04-02T06:37:39.869Z,97.00
2018-04-02T06:40:08.680Z,96.30
2018-04-02T06:42:37.606Z,95.60
2018-04-02T06:45:06.449Z,95.60
2018-04-02T06:47:35.241Z,95.20
2018-04-02T06:50:03.284Z,95.20
2018-04-02T06:52:31.341Z,95.10
2018-04-02T06:55:00.157Z,94.50
2018-04-02T06:57:28.976Z,94.00
2018-04-02T06:59:57.021Z,94.00
2018-04-02T07:02:25.081Z,93.60
2018-04-02T07:04:53.176Z,92.50
2018-04-02T07:07:21.244Z,92.00
2018-04-02T07:09:50.785Z,90.90
2018-04-02T07:12:18.829Z,90.90
2018-04-02T07:14:46.878Z,89.50
2018-04-02T07:17:15.709Z,87.40
2018-04-02T07:19:45.420Z,87.30
2018-04-02T07:22:14.472Z,87.30
2018-04-02T07:24:42.633Z,85.90
2018-04-02T07:27:11.441Z,85.80
2018-04-02T07:29:40.246Z,85.40
2018-04-02T07:32:08.301Z,85.40
2018-04-02T07:34:36.369Z,84.80
2018-04-02T07:37:04.419Z,85.50
2018-04-02T07:39:33.224Z,83.70
2018-04-02T07:42:01.285Z,83.70
2018-04-02T07:44:30.121Z,85.50
2018-04-02T07:46:58.945Z,81.20
2018-04-02T07:49:27.073Z,81.20
2018-04-02T07:51:55.716Z,82.00
2018-04-02T07:54:24.542Z,80.60
2018-04-02T07:56:53.357Z,79.50
2018-04-02T07:59:22.179Z,79.70
2018-04-02T08:01:50.487Z,79.70
2018-04-02T08:04:18.572Z,80.80
2018-04-02T08:06:47.401Z,78.70
2018-04-02T08:09:15.460Z,78.70
2018-04-02T08:11:43.534Z,79.70
2018-04-02T08:14:11.637Z,78.20
2018-04-02T08:16:39.681Z,78.10
2018-04-02T08:19:07.740Z,77.20
2018-04-02T08:21:35.785Z,74.90
2018-04-02T08:24:03.853Z,77.50
2018-04-02T08:26:32.672Z,74.80
2018-04-02T08:29:01.505Z,75.10
2018-04-02T08:31:29.596Z,75.10
2018-04-02T08:33:58.420Z,72.20
2018-04-02T08:36:26.508Z,72.10
2018-04-02T08:38:55.410Z,75.10
2018-04-02T08:41:23.418Z,75.20
2018-04-02T08:43:52.419Z,71.80
2018-04-02T08:46:20.460Z,71.80
2018-04-02T08:48:48.521Z,70.70
2018-04-02T08:51:17.333Z,68.90
2018-04-02T08:53:45.388Z,68.90
2018-04-02T08:56:13.455Z,68.50
2018-04-02T08:58:41.542Z,65.50
2018-04-02T09:01:10.344Z,66.40
2018-04-02T09:03:39.152Z,68.20
2018-04-02T09:06:07.212Z,68.20
2018-04-02T09:08:35.259Z,65.20
2018-04-02T09:11:04.818Z,63.20
2018-04-02T09:13:33.666Z,63.00
2018-04-02T09:16:01.756Z,63.00
2018-04-02T09:18:30.557Z,60.90
2018-04-02T09:20:58.609Z,60.90
2018-04-02T09:23:26.673Z,58.30
2018-04-02T09:25:56.224Z,53.20
2018-04-02T09:28:25.049Z,56.10
2018-04-02T09:30:53.888Z,54.30
2018-04-02T09:33:22.705Z,53.70
2018-04-02T09:35:51.509Z,55.00
2018-04-02T09:38:19.569Z,55.00
2018-04-02T09:40:47.623Z,53.80
2018-04-02T09:43:15.690Z,52.60
2018-04-02T09:45:43.854Z,52.60
2018-04-02T09:48:11.896Z,53.00
2018-04-02T09:50:41.464Z,52.90
2018-04-02T09:53:10.273Z,50.80
2018-04-02T09:55:39.103Z,53.00
2018-04-02T09:58:07.968Z,53.90
2018-04-02T10:00:35.985Z,54.00
2018-04-02T10:03:04.046Z,52.80
2018-04-02T10:05:32.111Z,50.70
2018-04-02T10:08:00.165Z,51.30
2018-04-02T10:10:28.263Z,52.90
2018-04-02T10:12:56.284Z,55.30
2018-04-02T10:15:26.638Z,50.10
2018-04-02T10:17:54.840Z,50.10
2018-04-02T10:20:23.644Z,46.70
2018-04-02T10:22:52.460Z,45.90
2018-04-02T10:25:20.496Z,45.40
2018-04-02T10:27:48.544Z,46.20
2018-04-02T10:30:16.616Z,45.60
2018-04-02T10:32:44.697Z,45.00
2018-04-02T10:35:12.754Z,45.30
2018-04-02T10:37:41.572Z,47.20
2018-04-02T10:40:10.399Z,45.60
2018-04-02T10:42:38.436Z,45.70
2018-04-02T10:45:06.493Z,46.70
2018-04-02T10:47:34.533Z,47.50
2018-04-02T10:50:02.599Z,49.40
2018-04-02T10:52:30.636Z,49.10
2018-04-02T10:54:58.681Z,47.10
2018-04-02T10:57:26.743Z,47.00
2018-04-02T10:59:54.827Z,46.40
2018-04-02T11:02:22.890Z,46.70
2018-04-02T11:04:50.954Z,46.60
2018-04-02T11:07:19.782Z,48.80
2018-04-02T11:09:47.816Z,48.90
2018-04-02T11:12:15.881Z,45.30
2018-04-02T11:14:43.936Z,46.80
2018-04-02T11:17:12.746Z,45.90
2018-04-02T11:19:40.808Z,45.30
2018-04-02T11:22:08.848Z,44.70
2018-04-02T11:24:37.673Z,45.50
2018-04-02T11:27:06.481Z,46.50
2018-04-02T11:29:35.323Z,46.90
2018-04-02T11:32:03.370Z,46.90
2018-04-02T11:34:31.413Z,49.60
2018-04-02T11:36:59.464Z,47.70
2018-04-02T11:39:27.529Z,47.40
2018-04-02T11:41:55.707Z,46.70
2018-04-02T11:44:24.503Z,48.70
2018-04-02T11:46:53.333Z,49.40
2018-04-02T11:49:21.373Z,49.40
2018-04-02T11:51:49.433Z,48.30
2018-04-02T11:54:17.472Z,49.70
2018-04-02T11:56:45.540Z,49.00
2018-04-02T11:59:13.593Z,49.60
2018-04-02T12:01:42.421Z,49.30
2018-04-02T12:04:10.470Z,49.30
2018-04-02T12:06:38.520Z,47.70
2018-04-02T12:09:06.581Z,48.80
2018-04-02T12:11:34.621Z,48.30
2018-04-02T12:14:02.705Z,47.40
2018-04-02T12:16:30.803Z,47.10
2018-04-02T12:18:59.717Z,46.30
2018-04-02T12:21:28.533Z,45.90
2018-04-02T12:23:57.352Z,47.80
2018-04-02T12:26:25.400Z,47.80
2018-04-02T12:28:53.461Z,47.20
2018-04-02T12:31:21.516Z,46.30
2018-04-02T12:33:49.564Z,44.90
2018-04-02T12:36:17.641Z,45.60
2018-04-02T12:38:45.688Z,46.80
2018-04-02T12:41:13.753Z,46.20
2018-04-02T12:43:41.808Z,46.50
2018-04-02T12:46:10.613Z,48.10
2018-04-02T12:48:38.673Z,47.60
2018-04-02T12:51:06.716Z,46.30
2018-04-02T12:53:35.545Z,44.10
2018-04-02T12:56:04.361Z,44.10
2018-04-02T12:58:33.168Z,44.30
2018-04-02T13:01:01.997Z,45.10
2018-04-02T13:03:30.052Z,45.10
2018-04-02T13:05:58.113Z,42.10
2018-04-02T13:08:26.157Z,44.00
2018-04-02T13:10:54.219Z,42.10
2018-04-02T13:13:22.256Z,41.80
2018-04-02T13:15:51.081Z,42.10
2018-04-02T13:18:19.892Z,41.70
2018-04-02T13:20:48.713Z,43.00
2018-04-02T13:23:17.543Z,39.30
2018-04-02T13:25:45.596Z,39.30
2018-04-02T13:28:13.752Z,41.20
2018-04-02T13:30:41.809Z,41.20
2018-04-02T13:33:10.633Z,40.00
2018-04-02T13:35:39.459Z,38.40
2018-04-02T13:38:08.273Z,38.50
2018-04-02T13:40:36.342Z,38.50
2018-04-02T13:43:05.155Z,41.40
2018-04-02T13:45:33.193Z,41.40
2018-04-02T13:48:03.575Z,36.80
2018-04-02T13:50:31.621Z,35.70
2018-04-02T13:53:00.430Z,39.60
2018-04-02T13:55:29.264Z,40.90
2018-04-02T13:57:57.319Z,40.80
2018-04-02T14:00:26.217Z,36.60
2018-04-02T14:02:54.273Z,36.60
2018-04-02T14:05:22.328Z,36.20
2018-04-02T14:07:51.892Z,35.90
2018-04-02T14:10:20.710Z,38.40
2018-04-02T14:12:49.538Z,39.70
2018-04-02T14:15:17.572Z,39.70
2018-04-02T14:17:45.633Z,38.60
2018-04-02T14:20:13.693Z,39.50
2018-04-02T14:22:42.505Z,39.70
2018-04-02T14:25:11.329Z,39.50
2018-04-02T14:27:40.160Z,39.20
2018-04-02T14:30:08.201Z,39.10
2018-04-02T14:32:36.248Z,40.90
2018-04-02T14:35:05.075Z,41.10
2018-04-02T14:37:33.132Z,40.90
2018-04-02T14:40:01.253Z,41.60
2018-04-02T14:42:30.084Z,40.30
2018-04-02T14:44:58.181Z,40.20
2018-04-02T14:47:26.231Z,41.70
2018-04-02T14:49:54.302Z,42.20
2018-04-02T14:52:22.348Z,40.00
2018-04-02T14:54:51.194Z,39.20
2018-04-02T14:57:19.228Z,39.10
2018-04-02T14:59:47.314Z,41.80
2018-04-02T15:02:15.352Z,41.70
2018-04-02T15:04:44.192Z,39.80
2018-04-02T15:07:12.979Z,39.90
2018-04-02T15:09:41.809Z,39.10
2018-04-02T15:14:33.805Z,40.00
2018-04-02T15:17:02.621Z,40.60
2018-04-02T15:19:31.448Z,40.80
2018-04-02T15:21:59.497Z,40.80
2018-04-02T15:24:27.543Z,38.50
2018-04-02T15:26:55.629Z,40.00
2018-04-02T15:29:24.443Z,39.00
2018-04-02T15:31:53.266Z,40.70
2018-04-02T15:34:21.315Z,40.70
2018-04-02T15:36:49.357Z,39.20
2018-04-02T15:39:17.423Z,37.10
2018-04-02T15:41:45.475Z,38.90
2018-04-02T15:44:13.533Z,40.20
2018-04-02T15:46:41.583Z,37.70
2018-04-02T15:49:09.649Z,37.60
2018-04-02T15:51:37.693Z,39.50
2018-04-02T15:54:05.749Z,40.30
2018-04-02T15:56:33.826Z,41.10
2018-04-02T15:59:02.625Z,39.30
2018-04-02T16:01:30.676Z,39.30
2018-04-02T16:03:59.499Z,40.90
2018-04-02T16:06:27.528Z,40.80
2018-04-02T16:08:55.590Z,42.30
2018-04-02T16:11:23.689Z,41.90
2018-04-02T16:13:52.473Z,40.10
2018-04-02T16:16:20.593Z,40.00
2018-04-02T16:18:49.416Z,39.30
2018-04-02T16:21:18.221Z,40.30
2018-04-02T16:23:46.343Z,40.20
2018-04-02T16:26:14.324Z,41.50
2018-04-02T16:28:43.149Z,42.70
2018-04-02T16:31:11.965Z,41.10
2018-04-02T16:33:40.778Z,42.50
2018-04-02T16:36:09.628Z,43.60
2018-04-02T16:38:37.670Z,43.50
2018-04-02T16:41:05.713Z,44.70
2018-04-02T16:43:33.782Z,44.00
2018-04-02T16:46:02.881Z,46.20
2018-04-02T16:48:30.947Z,45.50
2018-04-02T16:50:58.980Z,43.80
2018-04-02T16:53:27.032Z,44.40
2018-04-02T16:55:55.098Z,44.50
2018-04-02T16:58:23.944Z,45.00
2018-04-02T17:00:51.993Z,45.00
2018-04-02T17:03:20.051Z,46.50
2018-04-02T17:05:48.092Z,47.60
2018-04-02T17:08:16.921Z,46.80
2018-04-02T17:10:45.741Z,46.40
2018-04-02T17:13:14.549Z,47.80
2018-04-02T17:15:42.614Z,47.80
2018-04-02T17:18:10.661Z,48.30
2018-04-02T17:20:38.717Z,47.10
2018-04-02T17:23:06.760Z,49.10
2018-04-02T17:25:34.816Z,49.90
2018-04-02T17:28:03.725Z,51.10
2018-04-02T17:30:32.468Z,52.90
2018-04-02T17:33:00.539Z,53.50
2018-04-02T17:35:28.592Z,53.50
2018-04-02T17:37:56.649Z,53.30
2018-04-02T17:40:26.227Z,54.20
2018-04-02T17:42:54.261Z,54.20
2018-04-02T17:45:22.301Z,53.80
2018-04-02T17:47:50.356Z,54.70
2018-04-02T17:50:19.220Z,57.10
2018-04-02T17:52:47.229Z,56.30
2018-04-02T17:55:15.273Z,57.80
2018-04-02T17:57:45.096Z,58.60
2018-04-02T18:00:13.160Z,58.60
2018-04-02T18:02:41.185Z,60.10
2018-04-02T18:05:09.248Z,53.20
2018-04-02T18:07:38.282Z,50.80
2018-04-02T18:10:06.270Z,52.60
2018-04-02T18:12:34.428Z,52.80
2018-04-02T18:15:03.128Z,50.90
2018-04-02T18:17:31.932Z,49.30
2018-04-02T18:19:59.993Z,49.30
2018-04-02T18:22:28.054Z,49.00
2018-04-02T18:24:56.865Z,47.20
2018-04-02T18:27:25.701Z,49.40
2018-04-02T18:29:53.741Z,49.30
2018-04-02T18:32:21.856Z,50.50
2018-04-02T18:34:49.900Z,49.20
2018-04-02T18:37:17.948Z,47.80
2018-04-02T18:39:46.126Z,47.60
2018-04-02T18:42:14.209Z,49.70
2018-04-02T18:44:42.273Z,48.70
2018-04-02T18:47:10.309Z,49.50
2018-04-02T18:49:38.400Z,48.40
2018-04-02T18:52:06.549Z,49.50
2018-04-02T18:54:35.396Z,46.10
2018-04-02T18:57:03.441Z,46.10
2018-04-02T18:59:31.499Z,46.10
2018-04-02T19:01:59.616Z,47.90
2018-04-02T19:04:27.681Z,46.50
2018-04-02T19:06:55.767Z,48.40
2018-04-02T19:09:24.580Z,44.60
2018-04-02T19:11:53.412Z,45.10
2018-04-02T19:14:21.480Z,45.10
2018-04-02T19:16:49.516Z,44.80
2018-04-02T19:19:17.647Z,44.90
2018-04-02T19:21:46.322Z,45.40
2018-04-02T19:24:14.391Z,46.60
2018-04-02T19:26:43.196Z,46.90
2018-04-02T19:29:12.022Z,47.80
2018-04-02T19:31:40.107Z,47.80
2018-04-02T19:34:08.105Z,48.00
2018-04-02T19:36:36.975Z,44.90
2018-04-02T19:39:05.021Z,44.80
2018-04-02T19:41:33.861Z,48.80
2018-04-02T19:44:01.901Z,48.80
2018-04-02T19:46:30.029Z,47.00
2018-04-02T19:48:58.837Z,50.70
2018-04-02T19:51:26.878Z,50.70
2018-04-02T19:53:54.932Z,51.10
2018-04-02T19:56:22.981Z,53.10
2018-04-02T19:58:51.036Z,55.00
2018-04-02T20:01:19.864Z,57.40
2018-04-02T20:03:47.924Z,57.40
2018-04-02T20:06:15.968Z,57.80
2018-04-02T20:08:44.041Z,59.00
2018-04-02T20:11:12.068Z,60.90
2018-04-02T20:13:40.125Z,59.50
2018-04-02T20:16:08.955Z,60.20
2018-04-02T20:18:37.763Z,61.40
2018-04-02T20:21:06.593Z,58.10
2018-04-02T20:23:34.637Z,58.00
2018-04-02T20:26:02.673Z,57.70
2018-04-02T20:28:31.502Z,58.00
2018-04-02T20:30:59.563Z,58.00
2018-04-02T20:33:27.603Z,58.80
2018-04-02T20:35:55.670Z,59.60
2018-04-02T20:38:23.708Z,60.40
2018-04-02T20:40:51.761Z,61.10
2018-04-02T20:43:20.597Z,59.20
2018-04-02T20:45:49.409Z,59.70
2018-04-02T20:48:18.228Z,59.10
2018-04-02T20:50:46.271Z,59.10
2018-04-02T20:53:14.328Z,61.70
2018-04-02T20:55:42.368Z,61.30
2018-04-02T20:58:10.601Z,60.40
2018-04-02T21:00:39.406Z,62.20
2018-04-02T21:03:07.444Z,62.00
2018-04-02T21:05:35.504Z,61.70
2018-04-02T21:08:04.351Z,61.20
2018-04-02T21:10:32.392Z,61.20
2018-04-02T21:13:00.438Z,60.40
2018-04-02T21:15:28.497Z,61.40
2018-04-02T21:17:56.626Z,63.30
2018-04-02T21:20:24.685Z,65.80
2018-04-02T21:22:53.512Z,67.00
2018-04-02T21:25:21.573Z,67.00
2018-04-02T21:27:49.617Z,62.60
2018-04-02T21:30:18.441Z,64.40
2018-04-02T21:32:47.266Z,67.30
2018-04-02T21:35:15.333Z,67.20
2018-04-02T21:37:44.153Z,61.80
2018-04-02T21:40:12.961Z,64.30
2018-04-02T21:42:41.021Z,64.50
2018-04-02T21:45:09.082Z,64.80
2018-04-02T21:47:37.145Z,69.80
2018-04-02T21:50:05.195Z,69.30
2018-04-02T21:52:33.257Z,73.20
2018-04-02T21:55:02.082Z,71.40
2018-04-02T21:57:30.889Z,75.00
2018-04-02T21:59:59.716Z,76.60
2018-04-02T22:02:27.758Z,76.60
2018-04-02T22:04:55.816Z,71.40
2018-04-02T22:07:23.861Z,73.70
2018-04-02T22:09:51.916Z,74.70
2018-04-02T22:12:19.966Z,69.20
2018-04-02T22:14:48.792Z,61.70
2018-04-02T22:17:16.840Z,61.70
2018-04-02T22:19:44.885Z,56.60
2018-04-02T22:22:13.708Z,55.40
2018-04-02T22:24:42.517Z,52.30
2018-04-02T22:27:11.333Z,57.40
2018-04-02T22:29:39.377Z,57.30
2018-04-02T22:32:07.441Z,51.10
2018-04-02T22:34:36.253Z,54.20
2018-04-02T22:37:05.090Z,48.70
2018-04-02T22:39:33.134Z,48.60
2018-04-02T22:42:01.177Z,47.60
2018-04-02T22:44:29.242Z,53.10
2018-04-02T22:46:57.293Z,47.90
2018-04-02T22:49:25.338Z,49.10
2018-04-02T22:51:54.161Z,45.90
2018-04-02T22:54:22.970Z,47.70
2018-04-02T22:56:51.029Z,47.70
2018-04-02T22:59:19.079Z,49.30
2018-04-02T23:01:47.881Z,47.20
2018-04-02T23:04:16.708Z,45.60
2018-04-02T23:06:44.772Z,45.60
2018-04-02T23:09:12.813Z,46.10
2018-04-02T23:11:40.868Z,45.90
2018-04-02T23:14:08.930Z,46.50
2018-04-02T23:16:36.979Z,46.70
2018-04-02T23:19:05.814Z,47.70
2018-04-02T23:21:33.868Z,47.70
2018-04-02T23:24:01.916Z,47.80
2018-04-02T23:26:29.974Z,48.50
2018-04-02T23:28:58.020Z,48.90
2018-04-02T23:31:26.081Z,48.40
2018-04-02T23:33:54.895Z,48.60
2018-04-02T23:36:23.707Z,48.40
2018-04-02T23:38:52.534Z,48.30
2018-04-02T23:41:21.337Z,48.70
2018-04-02T23:43:50.167Z,48.20
2018-04-02T23:46:18.964Z,48.30
2018-04-02T23:48:47.786Z,47.90
2018-04-02T23:51:15.841Z,47.80
2018-04-02T23:53:43.896Z,48.60
2018-04-02T23:56:12.756Z,48.20
2018-04-02T23:58:40.801Z,48.80
